KAEJ

Details ICAO KAEJ
Name CENTRAL COLORADO RGNL
Region United States
Timezone America/Denver (UTC-6.0)
Plans Departing 2
Arriving 17
Stats Elevation 7,946 ft / 2,422 m (AMSL)
Location 38.814150° -106.120694°
Runways 1
Magnetic Variation 8.650° E
Sunrise 2018-05-26 11:45:34 UTC / 2018-05-26 05:45:34 Local
Sunset 2018-05-27 02:20:25 UTC / 2018-05-26 20:20:25 Local
Advertisement - Login to hide

Runways

ID Width Length Bearing (true) Bearing (mag) Surface Threshold Offset Overrun Length
15 75 ft / 23 m 8,313 ft / 2,534 m 162.22° 153.57° Asphalt 0 ft / 0 m 0 ft / 0 m
33 75 ft / 23 m 8,313 ft / 2,534 m 342.23° 333.58° Asphalt 0 ft / 0 m 0 ft / 0 m

Map

Weather


0- 5 10 15 20 25 30 35+ Temperature / ° C

Clouds and Precipitation
Forecast for 2018-05-26 12:00 UTC. Updated 3 hours ago

Ground ~20,000 ft ~40,000 ft Winds

METAR

KAEJ 261355Z AUTO 34004KT 10SM CLR 12/M05 A3023 RMK AO2 T01191054

TAF

Not found

Frequencies

Recorded 132.92 MHz AWOS 3
Unicom 122.80 MHz CTAF/UNICOM
Warning: Do not use this data for real-world aviation or navigation. No guarantee of current accuracy is given.